createdAt,value
2018-04-27T00:02:12.500Z,8.13
2018-04-27T00:04:40.829Z,8.11
2018-04-27T00:07:09.138Z,8.09
2018-04-27T00:09:37.468Z,8.05
2018-04-27T00:12:05.963Z,8.11
2018-04-27T00:14:34.296Z,8.12
2018-04-27T00:17:02.653Z,8.14
2018-04-27T00:19:30.972Z,8.15
2018-04-27T00:21:59.284Z,8.13
2018-04-27T00:24:27.626Z,8.11
2018-04-27T00:26:55.941Z,8.02
2018-04-27T00:29:24.302Z,7.95
2018-04-27T00:31:52.612Z,7.95
2018-04-27T00:34:20.975Z,7.93
2018-04-27T00:36:49.320Z,7.87
2018-04-27T00:39:17.623Z,7.81
2018-04-27T00:41:46.045Z,7.80
2018-04-27T00:44:14.434Z,7.79
2018-04-27T00:46:42.758Z,7.72
2018-04-27T00:49:11.098Z,7.67
2018-04-27T00:51:39.426Z,7.63
2018-04-27T00:54:07.754Z,7.58
2018-04-27T00:56:36.100Z,7.57
2018-04-27T00:59:04.434Z,7.49
2018-04-27T01:01:32.801Z,7.55
2018-04-27T01:04:01.171Z,7.59
2018-04-27T01:06:29.480Z,7.59
2018-04-27T01:08:57.797Z,7.59
2018-04-27T01:11:26.109Z,7.68
2018-04-27T01:13:54.454Z,7.72
2018-04-27T01:16:22.762Z,7.70
2018-04-27T01:18:51.113Z,7.79
2018-04-27T01:21:19.449Z,7.79
2018-04-27T01:23:47.799Z,7.83
2018-04-27T01:26:16.206Z,7.85
2018-04-27T01:28:44.519Z,7.91
2018-04-27T01:31:12.857Z,7.91
2018-04-27T01:33:41.238Z,7.90
2018-04-27T01:36:09.543Z,7.83
2018-04-27T01:38:37.922Z,7.76
2018-04-27T01:41:06.245Z,7.73
2018-04-27T01:43:34.570Z,7.71
2018-04-27T01:46:02.925Z,7.69
2018-04-27T01:48:31.222Z,7.67
2018-04-27T01:50:59.548Z,7.66
2018-04-27T01:53:27.947Z,7.67
2018-04-27T01:55:56.250Z,7.66
2018-04-27T01:58:24.570Z,7.62
2018-04-27T02:00:52.904Z,7.56
2018-04-27T02:03:21.247Z,7.52
2018-04-27T02:05:49.559Z,7.46
2018-04-27T02:08:17.983Z,7.41
2018-04-27T02:10:47.040Z,7.30
2018-04-27T02:13:15.384Z,7.28
2018-04-27T02:15:45.635Z,7.20
2018-04-27T02:18:13.987Z,7.14
2018-04-27T02:20:42.348Z,7.06
2018-04-27T02:23:10.680Z,6.96
2018-04-27T02:25:39.025Z,6.90
2018-04-27T02:28:07.380Z,6.86
2018-04-27T02:30:35.694Z,6.77
2018-04-27T02:33:04.033Z,6.71
2018-04-27T02:35:32.395Z,6.68
2018-04-27T02:38:00.713Z,6.56
2018-04-27T02:40:29.066Z,6.49
2018-04-27T02:42:57.384Z,6.51
2018-04-27T02:45:25.761Z,6.47
2018-04-27T02:47:54.128Z,6.48
2018-04-27T02:50:22.497Z,6.43
2018-04-27T02:52:50.828Z,6.36
2018-04-27T02:55:19.183Z,6.36
2018-04-27T02:57:47.517Z,6.31
2018-04-27T03:00:15.923Z,6.33
2018-04-27T03:02:44.233Z,6.34
2018-04-27T03:05:12.561Z,6.37
2018-04-27T03:07:40.929Z,6.39
2018-04-27T03:10:09.251Z,6.33
2018-04-27T03:12:37.563Z,6.29
2018-04-27T03:15:05.917Z,6.18
2018-04-27T03:17:34.278Z,6.08
2018-04-27T03:20:02.596Z,6.01
2018-04-27T03:22:30.943Z,6.02
2018-04-27T03:24:59.274Z,6.04
2018-04-27T03:27:27.608Z,5.99
2018-04-27T03:29:55.917Z,5.95
2018-04-27T03:32:24.242Z,5.94
2018-04-27T03:34:53.217Z,5.93
2018-04-27T03:37:21.968Z,5.89
2018-04-27T03:39:50.309Z,5.89
2018-04-27T03:42:18.627Z,5.91
2018-04-27T03:44:46.972Z,5.91
2018-04-27T03:47:15.315Z,5.91
2018-04-27T03:49:43.667Z,5.92
2018-04-27T03:52:11.983Z,5.95
2018-04-27T03:54:40.332Z,5.97
2018-04-27T03:57:08.660Z,5.96
2018-04-27T03:59:48.655Z,5.99
2018-04-27T04:02:28.795Z,6.04
2018-04-27T04:05:09.126Z,6.08
2018-04-27T04:07:37.464Z,6.06
2018-04-27T04:10:05.778Z,6.03
2018-04-27T04:12:34.137Z,6.08
2018-04-27T04:15:02.480Z,6.06
2018-04-27T04:17:30.770Z,6.05
2018-04-27T04:19:59.078Z,6.12
2018-04-27T04:22:27.451Z,6.15
2018-04-27T04:24:55.784Z,6.19
2018-04-27T04:27:24.140Z,6.24
2018-04-27T04:29:52.449Z,6.33
2018-04-27T04:32:21.896Z,6.39
2018-04-27T04:34:50.250Z,6.45
2018-04-27T04:37:18.592Z,6.53
2018-04-27T04:39:46.940Z,6.62
2018-04-27T04:42:16.884Z,6.77
2018-04-27T04:44:45.412Z,7.08
2018-04-27T04:47:13.728Z,6.93
2018-04-27T04:49:42.057Z,7.10
2018-04-27T04:52:10.407Z,7.41
2018-04-27T04:54:38.714Z,7.37
2018-04-27T04:57:07.214Z,7.44
2018-04-27T04:59:35.553Z,7.48
2018-04-27T05:02:04.209Z,7.47
2018-04-27T05:04:32.516Z,7.51
2018-04-27T05:07:00.926Z,7.59
2018-04-27T05:09:29.262Z,7.67
2018-04-27T05:11:57.611Z,7.72
2018-04-27T05:14:25.996Z,7.84
2018-04-27T05:16:54.328Z,7.92
2018-04-27T05:19:22.647Z,7.94
2018-04-27T05:21:51.000Z,8.02
2018-04-27T05:24:19.442Z,7.99
2018-04-27T05:26:47.857Z,8.11
2018-04-27T05:29:16.182Z,8.11
2018-04-27T05:31:44.534Z,7.88
2018-04-27T05:34:12.874Z,7.99
2018-04-27T05:36:41.313Z,8.24
2018-04-27T05:39:09.633Z,8.18
2018-04-27T05:41:37.988Z,8.59
2018-04-27T05:44:06.330Z,9.12
2018-04-27T05:46:34.763Z,9.73
2018-04-27T05:49:03.182Z,10.22
2018-04-27T05:51:31.450Z,10.46
2018-04-27T05:53:59.751Z,10.32
2018-04-27T05:56:28.090Z,10.59
2018-04-27T05:58:56.453Z,10.56
2018-04-27T06:01:24.769Z,11.13
2018-04-27T06:04:04.803Z,11.51
2018-04-27T06:06:33.116Z,11.79
2018-04-27T06:09:01.476Z,12.39
2018-04-27T06:11:29.866Z,13.05
2018-04-27T06:13:58.175Z,13.37
2018-04-27T06:16:26.527Z,14.55
2018-04-27T06:18:54.864Z,15.45
2018-04-27T06:21:23.177Z,15.70
2018-04-27T06:23:51.541Z,15.10
2018-04-27T06:26:19.857Z,14.75
2018-04-27T06:28:49.047Z,14.40
2018-04-27T06:31:17.424Z,14.55
2018-04-27T06:33:45.735Z,14.66
2018-04-27T06:36:14.095Z,15.07
2018-04-27T06:38:42.412Z,15.14
2018-04-27T06:41:10.741Z,15.00
2018-04-27T06:43:39.102Z,15.54
2018-04-27T06:46:07.422Z,16.21
2018-04-27T06:48:35.748Z,17.12
2018-04-27T06:51:04.081Z,17.88
2018-04-27T06:53:35.943Z,18.05
2018-04-27T06:56:04.295Z,18.56
2018-04-27T06:58:32.629Z,16.60
2018-04-27T07:01:07.294Z,16.13
2018-04-27T07:03:35.651Z,17.20
2018-04-27T07:06:03.961Z,18.07
2018-04-27T07:08:32.327Z,18.94
2018-04-27T07:11:00.650Z,19.06
2018-04-27T07:13:28.961Z,17.83
2018-04-27T07:15:57.315Z,17.13
2018-04-27T07:18:25.617Z,16.76
2018-04-27T07:20:53.940Z,16.64
2018-04-27T07:23:22.277Z,17.08
2018-04-27T07:25:50.669Z,17.67
2018-04-27T07:28:18.971Z,17.45
2018-04-27T07:30:47.289Z,16.91
2018-04-27T07:33:15.609Z,17.24
2018-04-27T07:35:43.939Z,16.85
2018-04-27T07:38:12.267Z,16.78
2018-04-27T07:40:40.608Z,16.77
2018-04-27T07:43:08.936Z,16.22
2018-04-27T07:45:38.281Z,16.78
2018-04-27T07:48:06.602Z,16.38
2018-04-27T07:50:34.954Z,16.99
2018-04-27T07:53:03.282Z,16.81
2018-04-27T07:55:31.610Z,17.11
2018-04-27T07:57:59.935Z,17.32
2018-04-27T08:00:28.267Z,17.37
2018-04-27T08:02:56.670Z,16.83
2018-04-27T08:05:25.105Z,16.94
2018-04-27T08:07:53.444Z,16.87
2018-04-27T08:10:21.763Z,16.55
2018-04-27T08:12:50.097Z,16.26
2018-04-27T08:15:18.431Z,16.25
2018-04-27T08:17:46.755Z,16.15
2018-04-27T08:20:24.900Z,16.38
2018-04-27T08:22:53.294Z,16.73
2018-04-27T08:25:21.662Z,17.27
2018-04-27T08:27:53.344Z,17.48
2018-04-27T08:30:21.720Z,17.86
2018-04-27T08:32:50.094Z,18.48
2018-04-27T08:35:18.406Z,19.36
2018-04-27T08:37:46.977Z,19.43
2018-04-27T08:40:15.306Z,19.45
2018-04-27T08:42:43.645Z,20.16
2018-04-27T08:45:11.973Z,20.39
2018-04-27T08:47:40.305Z,20.80
2018-04-27T08:50:08.739Z,21.61
2018-04-27T08:52:37.075Z,21.92
2018-04-27T08:55:05.413Z,21.87
2018-04-27T08:57:33.736Z,22.45
2018-04-27T09:00:02.082Z,22.23
2018-04-27T09:02:30.434Z,22.88
2018-04-27T09:04:58.753Z,22.64
2018-04-27T09:07:27.082Z,21.98
2018-04-27T09:09:55.389Z,22.06
2018-04-27T09:12:23.720Z,22.15
2018-04-27T09:14:52.039Z,22.06
2018-04-27T09:17:20.384Z,22.80
2018-04-27T09:19:48.715Z,23.07
2018-04-27T09:22:17.071Z,22.98
2018-04-27T09:24:45.390Z,22.30
2018-04-27T09:27:13.724Z,21.64
2018-04-27T09:29:42.064Z,21.62
2018-04-27T09:32:10.402Z,21.52
2018-04-27T09:34:38.716Z,22.02
2018-04-27T09:37:07.048Z,21.97
2018-04-27T09:39:35.387Z,21.90
2018-04-27T09:42:03.712Z,22.08
2018-04-27T09:44:32.021Z,22.63
2018-04-27T09:47:00.380Z,23.16
2018-04-27T09:49:28.793Z,23.48
2018-04-27T09:51:57.120Z,21.98
2018-04-27T09:54:25.433Z,21.97
2018-04-27T09:56:53.759Z,21.45
2018-04-27T09:59:22.092Z,21.52
2018-04-27T10:01:50.404Z,22.20
2018-04-27T10:04:18.738Z,21.22
2018-04-27T10:06:47.051Z,20.07
2018-04-27T10:09:15.385Z,20.31
2018-04-27T10:11:43.707Z,20.82
2018-04-27T10:14:12.060Z,21.90
2018-04-27T10:16:40.386Z,21.24
2018-04-27T10:19:08.720Z,20.81
2018-04-27T10:21:37.056Z,21.91
2018-04-27T10:24:05.503Z,21.63
2018-04-27T10:26:36.178Z,21.79
2018-04-27T10:29:04.841Z,22.40
2018-04-27T10:31:33.166Z,22.96
2018-04-27T10:34:01.476Z,21.10
2018-04-27T10:36:29.839Z,21.62
2018-04-27T10:38:58.156Z,21.66
2018-04-27T10:41:26.488Z,20.50
2018-04-27T10:43:54.808Z,21.31
2018-04-27T10:46:23.136Z,20.80
2018-04-27T10:48:51.473Z,20.46
2018-04-27T10:51:19.837Z,20.62
2018-04-27T10:53:48.165Z,21.07
2018-04-27T10:56:16.478Z,21.86
2018-04-27T10:58:44.818Z,21.39
2018-04-27T11:01:13.141Z,22.40
2018-04-27T11:03:41.463Z,21.43
2018-04-27T11:06:09.773Z,21.17
2018-04-27T11:08:38.110Z,21.16
2018-04-27T11:11:10.412Z,21.88
2018-04-27T11:13:38.746Z,21.83
2018-04-27T11:16:07.061Z,20.53
2018-04-27T11:18:35.403Z,20.85
2018-04-27T11:21:03.713Z,21.97
2018-04-27T11:23:32.033Z,21.36
2018-04-27T11:26:00.359Z,20.98
2018-04-27T11:28:28.678Z,21.06
2018-04-27T11:30:56.986Z,19.66
2018-04-27T11:33:25.327Z,19.69
2018-04-27T11:35:53.629Z,20.76
2018-04-27T11:38:21.943Z,20.67
2018-04-27T11:40:50.299Z,20.08
2018-04-27T11:43:18.600Z,20.27
2018-04-27T11:45:46.915Z,20.52
2018-04-27T11:48:15.232Z,20.64
2018-04-27T11:50:43.575Z,20.03
2018-04-27T11:53:11.890Z,20.26
2018-04-27T11:55:40.225Z,20.76
2018-04-27T11:58:08.522Z,20.29
2018-04-27T12:00:36.935Z,20.10
2018-04-27T12:03:05.236Z,20.08
2018-04-27T12:05:33.571Z,20.50
2018-04-27T12:08:01.885Z,20.55
2018-04-27T12:10:30.342Z,20.48
2018-04-27T12:12:58.645Z,19.63
2018-04-27T12:15:27.100Z,19.79
2018-04-27T12:17:55.396Z,19.46
2018-04-27T12:20:23.749Z,20.20
2018-04-27T12:22:52.074Z,20.15
2018-04-27T12:25:20.375Z,20.17
2018-04-27T12:27:48.705Z,20.85
2018-04-27T12:30:17.011Z,20.87
2018-04-27T12:32:45.321Z,21.41
2018-04-27T12:35:13.626Z,20.59
2018-04-27T12:37:41.944Z,21.25
2018-04-27T12:40:10.255Z,22.05
2018-04-27T12:42:38.593Z,21.37
2018-04-27T12:45:06.982Z,20.56
2018-04-27T12:47:35.221Z,19.98
2018-04-27T12:50:03.536Z,20.56
2018-04-27T12:52:33.183Z,20.56
2018-04-27T12:55:01.507Z,20.53
2018-04-27T12:57:30.097Z,21.81
2018-04-27T12:59:58.753Z,22.08
2018-04-27T13:02:27.070Z,21.94
2018-04-27T13:04:55.420Z,20.72
2018-04-27T13:07:23.742Z,20.43
2018-04-27T13:09:52.055Z,20.96
2018-04-27T13:12:20.365Z,21.09
2018-04-27T13:14:48.683Z,21.61
2018-04-27T13:17:16.998Z,22.14
2018-04-27T13:19:45.320Z,21.88
2018-04-27T13:22:13.640Z,21.88
2018-04-27T13:24:41.958Z,22.39
2018-04-27T13:27:10.280Z,23.05
2018-04-27T13:29:38.616Z,23.58
2018-04-27T13:32:06.919Z,22.32
2018-04-27T13:34:35.351Z,22.40
2018-04-27T13:37:03.583Z,21.80
2018-04-27T13:39:31.910Z,21.46
2018-04-27T13:42:00.219Z,21.54
2018-04-27T13:44:28.516Z,21.65
2018-04-27T13:46:56.846Z,21.08
2018-04-27T13:49:25.157Z,21.70
2018-04-27T13:51:53.502Z,21.47
2018-04-27T13:54:21.823Z,22.19
2018-04-27T13:56:50.167Z,21.63
2018-04-27T13:59:18.507Z,21.11
2018-04-27T14:01:46.843Z,21.42
2018-04-27T14:04:15.158Z,21.11
2018-04-27T14:06:43.504Z,21.42
2018-04-27T14:09:11.809Z,21.69
2018-04-27T14:11:40.148Z,21.92
2018-04-27T14:14:08.450Z,21.74
2018-04-27T14:16:36.817Z,21.83
2018-04-27T14:19:05.140Z,22.23
2018-04-27T14:21:33.518Z,21.78
2018-04-27T14:24:03.723Z,21.17
2018-04-27T14:26:32.019Z,21.38
2018-04-27T14:29:00.381Z,20.69
2018-04-27T14:31:28.703Z,21.52
2018-04-27T14:33:57.088Z,22.18
2018-04-27T14:36:25.431Z,21.53
2018-04-27T14:38:53.937Z,21.41
2018-04-27T14:41:22.249Z,21.08
2018-04-27T14:43:50.646Z,20.87
2018-04-27T14:46:18.941Z,21.28
2018-04-27T14:48:47.270Z,21.69
2018-04-27T14:51:15.578Z,21.99
2018-04-27T14:53:43.940Z,21.50
2018-04-27T14:56:12.260Z,21.26
2018-04-27T14:58:40.601Z,21.93
2018-04-27T15:01:08.981Z,21.55
2018-04-27T15:03:37.309Z,20.82
2018-04-27T15:06:05.625Z,20.63
2018-04-27T15:08:33.946Z,20.68
2018-04-27T15:11:02.260Z,20.64
2018-04-27T15:13:30.569Z,20.83
2018-04-27T15:15:58.887Z,21.18
2018-04-27T15:18:35.267Z,21.02
2018-04-27T15:21:03.565Z,20.95
2018-04-27T15:23:31.889Z,21.34
2018-04-27T15:26:00.205Z,21.54
2018-04-27T15:28:28.519Z,21.25
2018-04-27T15:30:56.893Z,21.30
2018-04-27T15:33:25.202Z,21.09
2018-04-27T15:35:53.539Z,21.50
2018-04-27T15:38:21.852Z,20.79
2018-04-27T15:40:50.193Z,20.07
2018-04-27T15:43:18.716Z,20.15
2018-04-27T15:45:47.033Z,20.15
2018-04-27T15:48:15.362Z,19.88
2018-04-27T15:50:43.710Z,20.06
2018-04-27T15:53:12.048Z,19.83
2018-04-27T15:55:40.355Z,19.60
2018-04-27T15:58:08.714Z,19.42
2018-04-27T16:00:37.087Z,19.33
2018-04-27T16:03:06.223Z,19.03
2018-04-27T16:05:34.549Z,18.97
2018-04-27T16:08:02.902Z,18.67
2018-04-27T16:10:31.209Z,18.60
2018-04-27T16:16:02.164Z,18.62
2018-04-27T16:18:30.500Z,18.89
2018-04-27T16:20:59.949Z,18.94
2018-04-27T16:23:28.265Z,18.88
2018-04-27T16:25:56.626Z,19.18
2018-04-27T16:28:24.935Z,19.38
2018-04-27T16:30:53.300Z,19.36
2018-04-27T16:33:21.673Z,19.12
2018-04-27T16:35:50.168Z,19.00
2018-04-27T16:38:18.487Z,18.93
2018-04-27T16:40:46.814Z,18.95
2018-04-27T16:43:15.160Z,18.83
2018-04-27T16:45:43.490Z,18.71
2018-04-27T16:48:11.903Z,18.59
2018-04-27T16:50:40.286Z,18.52
2018-04-27T16:53:08.600Z,18.36
2018-04-27T16:55:36.933Z,18.48
2018-04-27T16:58:05.242Z,18.39
2018-04-27T17:00:33.619Z,18.44
2018-04-27T17:03:01.952Z,18.55
2018-04-27T17:05:30.291Z,18.45
2018-04-27T17:07:58.643Z,18.44
2018-04-27T17:10:26.953Z,18.43
2018-04-27T17:12:55.277Z,18.30
2018-04-27T17:15:23.598Z,18.22
2018-04-27T17:17:51.927Z,18.11
2018-04-27T17:20:20.256Z,18.12
2018-04-27T17:22:48.577Z,18.12
2018-04-27T17:25:16.886Z,18.12
2018-04-27T17:27:45.348Z,18.03
2018-04-27T17:30:13.706Z,18.06
2018-04-27T17:32:42.053Z,18.03
2018-04-27T17:35:10.405Z,18.00
2018-04-27T17:37:38.700Z,17.94
2018-04-27T17:40:07.105Z,17.83
2018-04-27T17:42:35.597Z,17.71
2018-04-27T17:45:04.457Z,17.61
2018-04-27T17:47:32.828Z,17.58
2018-04-27T17:50:01.137Z,17.45
2018-04-27T17:52:29.477Z,17.33
2018-04-27T17:54:57.797Z,17.21
2018-04-27T17:57:26.126Z,17.10
2018-04-27T17:59:54.852Z,17.00
2018-04-27T18:02:23.192Z,16.85
2018-04-27T18:04:51.503Z,16.78
2018-04-27T18:07:19.831Z,16.68
2018-04-27T18:09:48.153Z,16.49
2018-04-27T18:12:16.567Z,16.38
2018-04-27T18:14:44.849Z,16.32
2018-04-27T18:17:13.155Z,16.13
2018-04-27T18:19:41.486Z,16.09
2018-04-27T18:22:09.797Z,15.92
2018-04-27T18:24:38.133Z,15.90
2018-04-27T18:27:06.436Z,15.82
2018-04-27T18:29:34.770Z,15.71
2018-04-27T18:32:03.096Z,15.69
2018-04-27T18:34:31.517Z,15.65
2018-04-27T18:36:59.874Z,15.60
2018-04-27T18:39:28.196Z,15.62
2018-04-27T18:41:56.627Z,15.55
2018-04-27T18:44:24.918Z,15.57
2018-04-27T18:46:53.239Z,15.55
2018-04-27T18:49:21.558Z,15.48
2018-04-27T18:51:49.908Z,15.36
2018-04-27T18:54:18.209Z,15.36
2018-04-27T18:56:47.354Z,15.30
2018-04-27T18:59:15.728Z,15.28
2018-04-27T19:01:44.125Z,15.35
2018-04-27T19:04:12.482Z,15.27
2018-04-27T19:06:40.818Z,15.25
2018-04-27T19:09:09.171Z,15.03
2018-04-27T19:11:37.667Z,14.78
2018-04-27T19:14:06.110Z,14.60
2018-04-27T19:16:34.520Z,14.55
2018-04-27T19:19:02.842Z,14.47
2018-04-27T19:21:31.260Z,14.43
2018-04-27T19:24:00.046Z,14.40
2018-04-27T19:26:28.355Z,14.36
2018-04-27T19:28:56.663Z,14.31
2018-04-27T19:31:24.990Z,14.27
2018-04-27T19:33:53.320Z,14.25
2018-04-27T19:36:21.630Z,14.22
2018-04-27T19:38:49.959Z,14.20
2018-04-27T19:41:18.267Z,14.22
2018-04-27T19:43:46.686Z,14.16
2018-04-27T19:46:15.099Z,14.13
2018-04-27T19:48:43.573Z,14.12
2018-04-27T19:51:11.885Z,14.06
2018-04-27T19:53:40.192Z,13.99
2018-04-27T19:56:09.069Z,13.91
2018-04-27T19:58:37.378Z,13.84
2018-04-27T20:01:05.756Z,13.76
2018-04-27T20:03:34.255Z,13.68
2018-04-27T20:06:02.621Z,13.61
2018-04-27T20:08:39.482Z,13.49
2018-04-27T20:11:07.825Z,13.44
2018-04-27T20:13:39.569Z,13.36
2018-04-27T20:16:07.914Z,13.26
2018-04-27T20:18:36.353Z,13.16
2018-04-27T20:21:04.663Z,13.11
2018-04-27T20:23:35.882Z,13.01
2018-04-27T20:26:05.903Z,12.97
2018-04-27T20:28:35.164Z,12.90
2018-04-27T20:31:03.481Z,12.81
2018-04-27T20:33:31.865Z,12.71
2018-04-27T20:36:00.941Z,12.68
2018-04-27T20:38:32.953Z,12.61
2018-04-27T20:41:05.113Z,12.54
2018-04-27T20:43:33.447Z,12.43
2018-04-27T20:46:01.902Z,12.40
2018-04-27T20:48:30.763Z,12.38
2018-04-27T20:51:03.031Z,12.31
2018-04-27T20:53:32.149Z,12.22
2018-04-27T20:56:02.355Z,12.18
2018-04-27T20:58:30.687Z,12.18
2018-04-27T21:00:59.066Z,12.15
2018-04-27T21:03:27.386Z,12.13
2018-04-27T21:05:55.708Z,12.09
2018-04-27T21:08:24.022Z,12.08
2018-04-27T21:10:52.370Z,12.06
2018-04-27T21:13:20.701Z,12.03
2018-04-27T21:15:49.035Z,12.03
2018-04-27T21:18:20.125Z,11.97
2018-04-27T21:20:48.505Z,11.95
2018-04-27T21:23:16.801Z,11.95
2018-04-27T21:25:45.127Z,11.96
2018-04-27T21:28:21.878Z,11.95
2018-04-27T21:30:50.207Z,11.91
2018-04-27T21:33:18.574Z,11.95
2018-04-27T21:35:52.531Z,11.93
2018-04-27T21:41:47.636Z,11.88
2018-04-27T21:44:34.567Z,11.83
2018-04-27T21:50:18.711Z,11.76
2018-04-27T21:52:53.449Z,11.75
2018-04-27T21:55:21.815Z,11.72
2018-04-27T21:57:56.963Z,11.71
2018-04-27T22:00:26.733Z,11.68
2018-04-27T22:03:16.868Z,11.60
2018-04-27T22:09:01.697Z,11.53
2018-04-27T22:11:46.794Z,11.53
2018-04-27T22:17:13.398Z,11.47
2018-04-27T22:19:41.720Z,11.40
2018-04-27T22:22:10.039Z,11.34
2018-04-27T22:24:50.004Z,11.28
2018-04-27T22:27:18.332Z,11.25
2018-04-27T22:29:47.532Z,11.20
2018-04-27T22:32:31.500Z,11.11
2018-04-27T22:35:02.288Z,11.03
2018-04-27T22:37:33.085Z,10.99
2018-04-27T22:40:05.925Z,10.93
2018-04-27T22:42:37.776Z,10.90
2018-04-27T22:45:21.807Z,10.81
2018-04-27T22:48:07.047Z,10.82
2018-04-27T22:50:35.372Z,10.77
2018-04-27T22:53:11.244Z,10.72
2018-04-27T22:55:39.590Z,10.59
2018-04-27T22:58:08.874Z,10.57
2018-04-27T23:03:35.250Z,10.53
2018-04-27T23:06:05.015Z,10.51
2018-04-27T23:08:33.330Z,10.45
2018-04-27T23:14:09.221Z,10.44
2018-04-27T23:16:37.523Z,10.36
2018-04-27T23:19:07.621Z,10.36
2018-04-27T23:21:53.179Z,10.33
2018-04-27T23:24:21.462Z,10.24
2018-04-27T23:26:51.190Z,10.22
2018-04-27T23:29:19.472Z,10.23
2018-04-27T23:31:48.591Z,10.20
2018-04-27T23:34:24.510Z,10.20
2018-04-27T23:36:55.431Z,10.17
2018-04-27T23:39:23.727Z,10.09
2018-04-27T23:41:52.085Z,10.12
2018-04-27T23:44:20.386Z,10.11
2018-04-27T23:46:48.695Z,10.15
2018-04-27T23:49:17.029Z,10.19
2018-04-27T23:51:45.303Z,10.20
2018-04-27T23:54:14.417Z,10.23
2018-04-27T23:56:44.230Z,10.21
2018-04-27T23:59:12.527Z,10.27
